Погода Новое Ободовона неделю

Тверская область, Россия

20 - 26 мая
  • 20мая
    Сегодня
    +8°
    +23°
    Практически безоблачно
    ВремяПогодаТемператураВлажностьДавлениеВетер, м/сВероятность осадков
    00:00Ясно и безоблачно+12°C62 %745 мм2.9 м/с2 %
    03:00Ясно и безоблачно+9°C71 %745 мм2.8 м/с2 %
    06:00Небольшая облачность+11°C71 %745 мм2.8 м/с2 %
    09:00Ясно и безоблачно+20°C61 %745 мм2.4 м/с2 %
    12:00Небольшая облачность+23°C50 %746 мм3.4 м/с12 %
    15:00Практически безоблачно+23°C53 %746 мм2.3 м/с32 %
    18:00Небольшая облачность+20°C69 %746 мм3.1 м/с33 %
    21:00Облачно с прояснениями+16°C85 %747 мм1.9 м/с4 %
  • 21мая
    Вторник
    +6°
    +22°
    Ясно и безоблачно
    ВремяПогодаТемператураВлажностьДавлениеВетер, м/сВероятность осадков
    00:00Небольшая облачность+12°C93 %747 мм1.9 м/с2 %
    03:00Ясно и безоблачно+10°C91 %747 мм2.2 м/с2 %
    06:00Практически безоблачно+10°C83 %748 мм2.3 м/с1 %
    09:00Практически безоблачно+17°C70 %749 мм2.1 м/с2 %
    12:00Ясно и безоблачно+20°C48 %750 мм2.3 м/с4 %
    15:00Ясно и безоблачно+22°C42 %749 мм2.9 м/с8 %
    18:00Ясно и безоблачно+21°C37 %749 мм2.8 м/с4 %
    21:00Ясно и безоблачно+15°C51 %750 мм2.7 м/с2 %
  • 22мая
    Среда
    +6°
    +21°
    Ясно и безоблачно
    ВремяПогодаТемператураВлажностьДавлениеВетер, м/сВероятность осадков
    00:00Ясно и безоблачно+10°C65 %750 мм2.6 м/с2 %
    03:00Ясно и безоблачно+7°C68 %751 мм3.9 м/с2 %
    06:00Ясно и безоблачно+7°C54 %752 мм3.5 м/с2 %
    09:00Ясно и безоблачно+16°C47 %753 мм2.7 м/с2 %
    12:00Ясно и безоблачно+19°C38 %753 мм2.5 м/с2 %
    15:00Ясно и безоблачно+20°C37 %752 мм2.1 м/с2 %
    18:00Ясно и безоблачно+20°C36 %752 мм2.4 м/с2 %
    21:00Ясно и безоблачно+15°C52 %753 мм3.4 м/с2 %
  • 23мая
    Четверг
    +7°
    +21°
    Облачно с прояснениями
    ВремяПогодаТемператураВлажностьДавлениеВетер, м/сВероятность осадков
    00:00Ясно и безоблачно+10°C56 %753 мм3.0 м/с2 %
    03:00Ясно и безоблачно+8°C65 %754 мм2.3 м/с2 %
    06:00Ясно и безоблачно+8°C69 %754 мм2.2 м/с2 %
    09:00Ясно и безоблачно+17°C52 %755 мм1.7 м/с2 %
    12:00Небольшая облачность+20°C37 %756 мм2.4 м/с2 %
    15:00Облачно с прояснениями+21°C36 %756 мм1.9 м/с2 %
    18:00Небольшая облачность+21°C37 %755 мм1.9 м/с2 %
    21:00Ясно и безоблачно+15°C58 %756 мм2.9 м/с2 %
  • 24мая
    Пятница
    +8°
    +23°
    Практически безоблачно
    ВремяПогодаТемператураВлажностьДавлениеВетер, м/сВероятность осадков
    00:00Ясно и безоблачно+11°C64 %756 мм2.7 м/с2 %
    03:00Ясно и безоблачно+8°C69 %757 мм2.5 м/с2 %
    06:00Практически безоблачно+9°C71 %757 мм2.5 м/с2 %
    09:00Ясно и безоблачно+18°C56 %758 мм2.0 м/с2 %
    12:00Практически безоблачно+21°C37 %758 мм2.8 м/с2 %
    15:00Практически безоблачно+22°C35 %757 мм3.0 м/с2 %
    18:00Ясно и безоблачно+23°C37 %757 мм3.0 м/с2 %
    21:00Ясно и безоблачно+17°C53 %756 мм3.3 м/с2 %
Мы используем cookies
Соглашаюсь